Time,TemperatureF,DewpointF,PressureIn,WindDirection,WindDirectionDegrees,WindSpeedMPH,WindSpeedGustMPH,Humidity,HourlyPrecipIn,Conditions,Clouds,dailyrainin,SoftwareType,DateUTC
2013-06-13 00:01:00,77.7,72.7,30.06,North,0,7.6,7.6,84,0.00,,,0.00,VWS V14.01,2013-06-13 05:01:00,
2013-06-13 00:06:00,77.7,72.3,30.06,NW,315,2.7,3.1,84,0.00,,,0.00,VWS V14.01,2013-06-13 05:06:00,
2013-06-13 00:11:00,77.5,72.2,30.06,NW,315,0.0,4.0,84,0.00,,,0.00,VWS V14.01,2013-06-13 05:11:00,
2013-06-13 00:16:00,77.5,72.2,30.06,NW,315,6.7,6.7,84,0.00,,,0.00,VWS V14.01,2013-06-13 05:16:00,
2013-06-13 00:21:00,77.4,72.3,30.06,NW,315,2.2,36.7,84,0.00,,,0.00,VWS V14.01,2013-06-13 05:21:00,
2013-06-13 00:26:00,77.5,72.5,30.06,NW,315,0.0,0.0,84,0.00,,,0.00,VWS V14.01,2013-06-13 05:26:00,
2013-06-13 00:31:00,77.4,72.0,30.06,NW,315,0.0,0.0,84,0.00,,,0.00,VWS V14.01,2013-06-13 05:31:00,
2013-06-13 00:36:00,77.2,71.8,30.06,NW,315,0.0,0.0,84,0.00,,,0.00,VWS V14.01,2013-06-13 05:36:00,
2013-06-13 00:41:00,77.4,72.0,30.06,NW,315,0.0,0.0,84,0.00,,,0.00,VWS V14.01,2013-06-13 05:41:00,
2013-06-13 00:46:00,77.2,71.8,30.06,NW,315,0.0,0.0,84,0.00,,,0.00,VWS V14.01,2013-06-13 05:46:00,
2013-06-13 00:51:00,77.0,72.0,30.06,NW,315,0.0,0.0,84,0.00,,,0.00,VWS V14.01,2013-06-13 05:51:00,
2013-06-13 00:56:00,76.8,71.8,30.06,NW,315,0.0,0.0,84,0.00,,,0.00,VWS V14.01,2013-06-13 05:56:00,
2013-06-13 01:01:00,76.8,71.8,30.06,North,0,0.0,0.0,84,0.00,,,0.00,VWS V14.01,2013-06-13 06:01:00,
2013-06-13 01:06:00,76.6,72.0,30.06,NNW,338,0.0,0.0,86,0.00,,,0.00,VWS V14.01,2013-06-13 06:06:00,
2013-06-13 01:11:00,76.5,71.8,30.06,NW,315,0.0,0.0,86,0.00,,,0.00,VWS V14.01,2013-06-13 06:11:00,
2013-06-13 01:16:00,76.3,71.6,30.06,NW,315,2.7,2.7,86,0.00,,,0.00,VWS V14.01,2013-06-13 06:16:00,
2013-06-13 01:21:00,76.3,71.6,30.06,NW,315,0.0,0.0,86,0.00,,,0.00,VWS V14.01,2013-06-13 06:21:00,
2013-06-13 01:26:00,76.1,71.4,30.06,NW,315,0.0,0.0,86,0.00,,,0.00,VWS V14.01,2013-06-13 06:26:00,
2013-06-13 01:31:00,75.9,71.6,30.06,NW,315,0.0,0.0,86,0.00,,,0.00,VWS V14.01,2013-06-13 06:31:00,
2013-06-13 01:36:00,75.7,71.4,30.06,NW,315,0.0,0.0,86,0.00,,,0.00,VWS V14.01,2013-06-13 06:36:00,
2013-06-13 01:41:00,75.4,71.1,30.06,NW,315,0.0,0.0,86,0.00,,,0.00,VWS V14.01,2013-06-13 06:41:00,
2013-06-13 01:46:00,75.2,71.2,30.06,NW,315,0.0,0.0,88,0.00,,,0.00,VWS V14.01,2013-06-13 06:46:00,
2013-06-13 01:51:00,75.0,71.1,30.06,NW,315,0.0,0.0,88,0.00,,,0.00,VWS V14.01,2013-06-13 06:51:00,
2013-06-13 01:56:00,74.8,71.2,30.06,NW,315,0.0,0.0,88,0.00,,,0.00,VWS V14.01,2013-06-13 06:56:00,
2013-06-13 02:01:00,74.7,71.0,30.06,NW,315,0.0,0.0,88,0.00,,,0.00,VWS V14.01,2013-06-13 07:01:00,
2013-06-13 02:06:00,74.5,70.9,30.06,NW,315,0.0,0.0,88,0.00,,,0.00,VWS V14.01,2013-06-13 07:06:00,
2013-06-13 02:11:00,74.3,71.0,30.06,NW,315,0.0,0.0,90,0.00,,,0.00,VWS V14.01,2013-06-13 07:11:00,
2013-06-13 02:16:00,74.1,70.8,30.06,NW,315,0.0,0.0,90,0.00,,,0.00,VWS V14.01,2013-06-13 07:16:00,
2013-06-13 02:21:00,73.8,70.5,30.06,NW,315,0.0,0.0,90,0.00,,,0.00,VWS V14.01,2013-06-13 07:21:00,
2013-06-13 02:26:00,73.6,70.3,30.06,NW,315,0.0,0.0,90,0.00,,,0.00,VWS V14.01,2013-06-13 07:26:00,
2013-06-13 02:31:00,73.8,70.8,30.06,NW,315,0.0,0.0,90,0.00,,,0.00,VWS V14.01,2013-06-13 07:31:00,
2013-06-13 02:36:00,73.6,70.6,30.06,NW,315,0.0,0.0,90,0.00,,,0.00,VWS V14.01,2013-06-13 07:36:00,
2013-06-13 02:41:00,73.6,71.0,30.06,NW,315,0.0,0.0,92,0.00,,,0.00,VWS V14.01,2013-06-13 07:41:00,
2013-06-13 02:46:00,73.6,71.0,30.06,NW,315,0.0,0.0,92,0.00,,,0.00,VWS V14.01,2013-06-13 07:46:00,
2013-06-13 02:51:00,73.4,70.8,30.06,NW,315,0.0,0.0,92,0.00,,,0.00,VWS V14.01,2013-06-13 07:51:00,
2013-06-13 02:56:00,73.6,71.0,30.06,NW,315,0.0,0.0,92,0.00,,,0.00,VWS V14.01,2013-06-13 07:56:00,
2013-06-13 03:01:00,73.4,70.8,30.06,NW,315,0.0,0.0,92,0.00,,,0.00,VWS V14.01,2013-06-13 08:01:00,
2013-06-13 03:06:00,73.4,70.8,30.06,NW,315,0.0,0.0,92,0.00,,,0.00,VWS V14.01,2013-06-13 08:06:00,
2013-06-13 03:11:00,73.2,70.9,30.06,NW,315,0.0,0.0,92,0.00,,,0.00,VWS V14.01,2013-06-13 08:11:00,
2013-06-13 03:16:00,73.0,70.7,30.06,NW,315,0.0,0.0,92,0.00,,,0.00,VWS V14.01,2013-06-13 08:16:00,
2013-06-13 03:21:00,72.9,70.6,30.06,NW,315,0.0,0.0,92,0.00,,,0.00,VWS V14.01,2013-06-13 08:21:00,
2013-06-13 03:26:00,72.7,70.4,30.06,NW,315,0.0,0.0,92,0.00,,,0.00,VWS V14.01,2013-06-13 08:26:00,
2013-06-13 03:31:00,72.5,70.2,30.06,NW,315,0.0,0.0,92,0.00,,,0.00,VWS V14.01,2013-06-13 08:31:00,
2013-06-13 03:36:00,72.3,70.0,30.06,NW,315,0.0,0.0,92,0.00,,,0.00,VWS V14.01,2013-06-13 08:36:00,
2013-06-13 03:41:00,72.0,69.7,30.06,NW,315,0.0,0.0,92,0.00,,,0.00,VWS V14.01,2013-06-13 08:41:00,
2013-06-13 03:46:00,71.8,69.5,30.06,NW,315,0.0,0.0,92,0.00,,,0.00,VWS V14.01,2013-06-13 08:46:00,
2013-06-13 03:51:00,71.4,69.4,30.06,NW,315,0.0,0.0,94,0.00,,,0.00,VWS V14.01,2013-06-13 08:51:00,
2013-06-13 03:56:00,71.8,69.8,30.06,NW,315,0.0,0.0,94,0.00,,,0.00,VWS V14.01,2013-06-13 08:56:00,
2013-06-13 04:01:00,72.0,70.3,30.06,NW,315,0.0,0.0,94,0.00,,,0.00,VWS V14.01,2013-06-13 09:01:00,
2013-06-13 04:06:00,72.3,70.7,30.06,NW,315,0.0,0.0,94,0.00,,,0.00,VWS V14.01,2013-06-13 09:06:00,
2013-06-13 04:11:00,72.5,70.8,30.06,NW,315,0.0,0.0,94,0.00,,,0.00,VWS V14.01,2013-06-13 09:11:00,
2013-06-13 04:16:00,72.5,70.8,30.06,NW,315,0.0,0.0,94,0.00,,,0.00,VWS V14.01,2013-06-13 09:16:00,
2013-06-13 04:21:00,72.5,70.8,30.06,NW,315,0.0,0.0,94,0.00,,,0.00,VWS V14.01,2013-06-13 09:21:00,
2013-06-13 04:25:00,72.7,70.7,30.06,NW,315,0.0,0.0,94,0.00,,,0.00,VWS V14.01,2013-06-13 09:25:00,
2013-06-13 04:30:00,72.7,70.7,30.06,NW,315,0.0,0.0,94,0.00,,,0.00,VWS V14.01,2013-06-13 09:30:00,
2013-06-13 04:35:00,72.7,70.7,30.06,NW,315,0.0,0.0,94,0.00,,,0.00,VWS V14.01,2013-06-13 09:35:00,
2013-06-13 04:40:00,72.7,70.7,30.06,NW,315,0.0,0.0,94,0.00,,,0.00,VWS V14.01,2013-06-13 09:40:00,
2013-06-13 04:45:00,72.7,70.7,30.09,NE,45,2.7,2.7,94,0.00,,,0.00,VWS V14.01,2013-06-13 09:45:00,
2013-06-13 04:50:00,72.7,70.7,30.09,NE,45,0.0,0.0,94,0.00,,,0.00,VWS V14.01,2013-06-13 09:50:00,
2013-06-13 04:55:00,72.7,70.7,30.09,NE,45,0.0,0.0,94,0.00,,,0.00,VWS V14.01,2013-06-13 09:55:00,
2013-06-13 05:00:00,72.5,70.5,30.09,NE,45,0.0,0.0,94,0.00,,,0.00,VWS V14.01,2013-06-13 10:00:00,
2013-06-13 05:05:00,72.5,70.5,30.09,NE,45,0.0,0.0,94,0.00,,,0.00,VWS V14.01,2013-06-13 10:05:00,
2013-06-13 05:10:00,72.5,70.5,30.09,NE,45,0.0,0.0,94,0.00,,,0.00,VWS V14.01,2013-06-13 10:10:00,
2013-06-13 05:15:00,72.3,70.3,30.09,NE,45,0.0,0.0,94,0.00,,,0.00,VWS V14.01,2013-06-13 10:15:00,
2013-06-13 05:20:00,72.1,70.2,30.09,NE,45,0.0,0.0,94,0.00,,,0.00,VWS V14.01,2013-06-13 10:20:00,
2013-06-13 05:25:00,72.0,70.0,30.09,NE,45,0.0,0.0,94,0.00,,,0.00,VWS V14.01,2013-06-13 10:25:00,
2013-06-13 05:30:00,71.6,69.6,30.09,NE,45,0.0,0.0,94,0.00,,,0.00,VWS V14.01,2013-06-13 10:30:00,
2013-06-13 05:35:00,71.2,69.6,30.09,NE,45,0.0,0.0,94,0.00,,,0.00,VWS V14.01,2013-06-13 10:35:00,
2013-06-13 05:40:00,71.1,69.4,30.09,NE,45,0.0,0.0,94,0.00,,,0.00,VWS V14.01,2013-06-13 10:40:00,
2013-06-13 05:45:00,70.9,69.2,30.09,NE,45,0.0,0.0,94,0.00,,,0.00,VWS V14.01,2013-06-13 10:45:00,
2013-06-13 05:50:00,70.7,69.4,30.09,NE,45,0.0,0.0,96,0.00,,,0.00,VWS V14.01,2013-06-13 10:50:00,
2013-06-13 05:55:00,70.3,69.0,30.09,NE,45,0.0,0.0,96,0.00,,,0.00,VWS V14.01,2013-06-13 10:55:00,
2013-06-13 06:00:00,70.0,68.6,30.09,NE,45,0.0,0.0,96,0.00,,,0.00,VWS V14.01,2013-06-13 11:00:00,
2013-06-13 06:05:00,70.2,68.8,30.09,NE,45,0.0,0.0,96,0.00,,,0.00,VWS V14.01,2013-06-13 11:05:00,
2013-06-13 06:10:00,70.2,68.8,30.09,NE,45,0.0,0.0,96,0.00,,,0.00,VWS V14.01,2013-06-13 11:10:00,
2013-06-13 06:15:00,70.2,68.8,30.09,NE,45,0.0,0.0,96,0.00,,,0.00,VWS V14.01,2013-06-13 11:15:00,
2013-06-13 06:20:00,70.2,68.8,30.09,NE,45,0.0,0.0,96,0.00,,,0.00,VWS V14.01,2013-06-13 11:20:00,
2013-06-13 06:25:00,70.3,69.0,30.09,NE,45,0.0,0.0,96,0.00,,,0.00,VWS V14.01,2013-06-13 11:25:00,
2013-06-13 06:30:00,70.7,69.4,30.09,NE,45,0.0,0.0,96,0.00,,,0.00,VWS V14.01,2013-06-13 11:30:00,
2013-06-13 06:35:00,71.2,69.9,30.09,NE,45,0.0,0.0,96,0.00,,,0.00,VWS V14.01,2013-06-13 11:35:00,
2013-06-13 06:40:00,71.6,70.2,30.09,NE,45,0.0,0.0,96,0.00,,,0.00,VWS V14.01,2013-06-13 11:40:00,
2013-06-13 06:45:00,72.0,70.6,30.09,NE,45,0.0,0.0,96,0.00,,,0.00,VWS V14.01,2013-06-13 11:45:00,
2013-06-13 06:50:00,72.1,70.8,30.09,NE,45,0.0,0.0,96,0.00,,,0.00,VWS V14.01,2013-06-13 11:50:00,
2013-06-13 06:55:00,72.7,71.3,30.09,NE,45,0.0,0.0,96,0.00,,,0.00,VWS V14.01,2013-06-13 11:55:00,
2013-06-13 07:00:00,73.2,71.6,30.09,NE,45,0.0,0.0,94,0.00,,,0.00,VWS V14.01,2013-06-13 12:00:00,
2013-06-13 07:05:00,73.8,72.1,30.09,NE,45,0.0,0.0,94,0.00,,,0.00,VWS V14.01,2013-06-13 12:05:00,
2013-06-13 07:10:00,74.5,72.5,30.09,NE,45,0.0,0.0,94,0.00,,,0.00,VWS V14.01,2013-06-13 12:10:00,
2013-06-13 07:15:00,75.0,72.4,30.09,NE,45,0.0,0.0,92,0.00,,,0.00,VWS V14.01,2013-06-13 12:15:00,
2013-06-13 07:20:00,75.4,71.8,30.09,NE,45,4.0,4.0,88,0.00,,,0.00,VWS V14.01,2013-06-13 12:20:00,
2013-06-13 07:25:00,75.9,71.9,30.09,NE,45,3.6,4.0,88,0.00,,,0.00,VWS V14.01,2013-06-13 12:25:00,
2013-06-13 07:30:00,76.1,71.8,30.12,NE,45,4.0,4.9,86,0.00,,,0.00,VWS V14.01,2013-06-13 12:30:00,
2013-06-13 07:35:00,76.6,72.0,30.12,NE,45,3.6,3.6,86,0.00,,,0.00,VWS V14.01,2013-06-13 12:35:00,
2013-06-13 07:40:00,77.4,72.7,30.12,NE,45,5.8,5.8,86,0.00,,,0.00,VWS V14.01,2013-06-13 12:40:00,
2013-06-13 07:45:00,77.2,71.8,30.12,East,90,5.4,5.8,84,0.00,,,0.00,VWS V14.01,2013-06-13 12:45:00,
2013-06-13 07:50:00,77.5,72.2,30.12,NE,45,4.0,7.2,84,0.00,,,0.00,VWS V14.01,2013-06-13 12:50:00,
2013-06-13 07:55:00,77.7,72.0,30.12,NE,45,4.9,5.8,82,0.00,,,0.00,VWS V14.01,2013-06-13 12:55:00,
2013-06-13 08:00:00,77.7,72.0,30.12,NE,45,6.7,6.7,82,0.00,,,0.00,VWS V14.01,2013-06-13 13:00:00,
2013-06-13 08:05:00,77.7,72.3,30.12,NE,45,4.0,5.4,84,0.00,,,0.00,VWS V14.01,2013-06-13 13:05:00,
2013-06-13 08:10:00,77.9,72.5,30.12,ENE,68,5.8,8.3,84,0.00,,,0.00,VWS V14.01,2013-06-13 13:10:00,
2013-06-13 08:15:00,78.6,73.6,30.12,NE,45,0.0,0.0,84,0.00,,,0.00,VWS V14.01,2013-06-13 13:15:00,
2013-06-13 08:20:00,79.0,73.2,30.12,East,90,3.1,3.6,82,0.00,,,0.00,VWS V14.01,2013-06-13 13:20:00,
2013-06-13 08:25:00,80.1,73.9,30.12,East,90,0.0,0.0,82,0.00,,,0.00,VWS V14.01,2013-06-13 13:25:00,
2013-06-13 08:30:00,80.8,73.5,30.12,East,90,2.7,3.6,78,0.00,,,0.00,VWS V14.01,2013-06-13 13:30:00,
2013-06-13 08:35:00,80.8,73.1,30.12,East,90,2.7,3.6,78,0.00,,,0.00,VWS V14.01,2013-06-13 13:35:00,
2013-06-13 08:40:00,80.6,73.3,30.12,South,180,5.8,5.8,78,0.00,,,0.00,VWS V14.01,2013-06-13 13:40:00,
2013-06-13 08:45:00,80.2,72.6,30.12,South,180,3.6,4.9,78,0.00,,,0.00,VWS V14.01,2013-06-13 13:45:00,
2013-06-13 08:50:00,81.5,73.4,30.12,SE,135,2.2,3.1,76,0.00,,,0.00,VWS V14.01,2013-06-13 13:50:00,
2013-06-13 08:55:00,81.0,72.5,30.12,South,180,0.0,2.7,76,0.00,,,0.00,VWS V14.01,2013-06-13 13:55:00,
2013-06-13 09:00:00,81.7,72.8,30.12,SE,135,7.2,7.2,74,0.00,,,0.00,VWS V14.01,2013-06-13 14:00:00,
2013-06-13 09:05:00,81.5,72.6,30.12,SSE,158,4.0,4.0,74,0.00,,,0.00,VWS V14.01,2013-06-13 14:05:00,
2013-06-13 09:10:00,81.0,71.7,30.12,South,180,3.6,5.4,74,0.00,,,0.00,VWS V14.01,2013-06-13 14:10:00,
2013-06-13 09:15:00,82.2,73.3,30.12,South,180,4.0,4.0,74,0.00,,,0.00,VWS V14.01,2013-06-13 14:15:00,
2013-06-13 09:20:00,82.2,72.1,30.12,SSE,158,4.9,4.9,72,0.00,,,0.00,VWS V14.01,2013-06-13 14:20:00,
2013-06-13 09:25:00,83.1,71.7,30.12,SSE,158,2.7,4.0,68,0.00,,,0.00,VWS V14.01,2013-06-13 14:25:00,
2013-06-13 09:30:00,83.5,72.0,30.12,SE,135,2.7,3.6,68,0.00,,,0.00,VWS V14.01,2013-06-13 14:30:00,
2013-06-13 09:35:00,83.5,72.0,30.12,SSE,158,3.6,4.9,68,0.00,,,0.00,VWS V14.01,2013-06-13 14:35:00,
2013-06-13 09:40:00,82.0,70.2,30.12,South,180,4.0,7.6,68,0.00,,,0.00,VWS V14.01,2013-06-13 14:40:00,
2013-06-13 09:45:00,80.8,69.5,30.12,SW,225,6.3,6.3,68,0.00,,,0.00,VWS V14.01,2013-06-13 14:45:00,
2013-06-13 09:50:00,82.8,71.3,30.12,SE,135,3.6,3.6,68,0.00,,,0.00,VWS V14.01,2013-06-13 14:50:00,
2013-06-13 09:55:00,84.2,72.3,30.12,SE,135,2.7,2.7,68,0.00,,,0.00,VWS V14.01,2013-06-13 14:55:00,
2013-06-13 10:00:00,85.1,72.2,30.12,SE,135,3.6,3.6,66,0.00,,,0.00,VWS V14.01,2013-06-13 15:00:00,
2013-06-13 10:05:00,83.8,71.1,30.12,South,180,4.9,4.9,66,0.00,,,0.00,VWS V14.01,2013-06-13 15:05:00,
2013-06-13 10:10:00,84.6,71.7,30.12,South,180,4.9,4.9,66,0.00,,,0.00,VWS V14.01,2013-06-13 15:10:00,
2013-06-13 10:15:00,85.5,72.1,30.12,South,180,0.0,2.2,64,0.00,,,0.00,VWS V14.01,2013-06-13 15:15:00,
2013-06-13 10:20:00,83.8,69.7,30.12,West,270,3.6,4.0,62,0.00,,,0.00,VWS V14.01,2013-06-13 15:20:00,
2013-06-13 10:25:00,85.5,72.1,30.12,South,180,6.3,6.3,64,0.00,,,0.00,VWS V14.01,2013-06-13 15:25:00,
2013-06-13 10:30:00,85.1,71.3,30.12,ESE,112,0.0,2.7,64,0.00,,,0.00,VWS V14.01,2013-06-13 15:30:00,
2013-06-13 10:35:00,87.1,71.8,30.12,SSE,158,2.2,3.1,60,0.00,,,0.00,VWS V14.01,2013-06-13 15:35:00,
2013-06-13 10:40:00,87.6,71.8,30.12,East,90,4.5,4.5,60,0.00,,,0.00,VWS V14.01,2013-06-13 15:40:00,
2013-06-13 10:45:00,87.1,71.3,30.12,East,90,3.1,3.1,60,0.00,,,0.00,VWS V14.01,2013-06-13 15:45:00,
2013-06-13 10:50:00,85.8,70.6,30.12,SSE,158,2.2,2.7,60,0.00,,,0.00,VWS V14.01,2013-06-13 15:50:00,
2013-06-13 10:55:00,87.1,70.8,30.12,SE,135,0.0,2.7,58,0.00,,,0.00,VWS V14.01,2013-06-13 15:55:00,
2013-06-13 11:00:00,88.0,71.1,30.12,NE,45,0.0,0.0,58,0.00,,,0.00,VWS V14.01,2013-06-13 16:00:00,
2013-06-13 11:05:00,87.6,70.3,30.12,SE,135,2.7,3.1,56,0.00,,,0.00,VWS V14.01,2013-06-13 16:05:00,
2013-06-13 11:10:00,87.1,69.8,30.12,SSE,158,4.9,5.4,56,0.00,,,0.00,VWS V14.01,2013-06-13 16:10:00,
2013-06-13 11:15:00,86.5,69.8,30.12,South,180,0.0,2.7,58,0.00,,,0.00,VWS V14.01,2013-06-13 16:15:00,
2013-06-13 11:20:00,88.3,70.9,30.12,South,180,3.1,3.1,56,0.00,,,0.00,VWS V14.01,2013-06-13 16:20:00,
2013-06-13 11:25:00,87.6,70.3,30.12,East,90,0.0,2.7,56,0.00,,,0.00,VWS V14.01,2013-06-13 16:25:00,
2013-06-13 11:30:00,88.0,70.6,30.12,East,90,2.7,2.7,56,0.00,,,0.00,VWS V14.01,2013-06-13 16:30:00,
2013-06-13 11:35:00,87.3,70.9,30.12,SE,135,3.1,3.6,58,0.00,,,0.00,VWS V14.01,2013-06-13 16:35:00,
2013-06-13 11:40:00,86.9,71.1,30.12,NE,45,2.2,4.9,60,0.00,,,0.00,VWS V14.01,2013-06-13 16:40:00,
2013-06-13 11:45:00,87.4,71.6,30.12,SE,135,3.1,3.1,60,0.00,,,0.00,VWS V14.01,2013-06-13 16:45:00,
2013-06-13 11:50:00,87.6,71.8,30.12,NE,45,5.8,5.8,60,0.00,,,0.00,VWS V14.01,2013-06-13 16:50:00,
2013-06-13 11:55:00,86.9,71.1,30.12,NE,45,3.1,3.1,60,0.00,,,0.00,VWS V14.01,2013-06-13 16:55:00,
2013-06-13 12:00:00,88.2,71.3,30.12,East,90,0.0,0.0,58,0.00,,,0.00,VWS V14.01,2013-06-13 17:00:00,
2013-06-13 12:05:00,88.7,71.8,30.12,NE,45,0.0,2.2,58,0.00,,,0.00,VWS V14.01,2013-06-13 17:05:00,
2013-06-13 12:10:00,87.1,69.2,30.12,East,90,4.9,7.2,56,0.00,,,0.00,VWS V14.01,2013-06-13 17:10:00,
2013-06-13 12:15:00,87.4,71.1,30.12,NE,45,3.1,3.1,58,0.00,,,0.00,VWS V14.01,2013-06-13 17:15:00,
2013-06-13 12:20:00,87.1,70.8,30.12,ENE,68,4.5,5.4,58,0.00,,,0.00,VWS V14.01,2013-06-13 17:20:00,
2013-06-13 12:25:00,87.1,70.8,30.12,East,90,6.3,6.3,58,0.00,,,0.00,VWS V14.01,2013-06-13 17:25:00,
2013-06-13 12:30:00,87.1,71.3,30.12,NE,45,0.0,0.0,60,0.00,,,0.00,VWS V14.01,2013-06-13 17:30:00,
2013-06-13 12:35:00,87.3,70.9,30.12,NE,45,3.6,4.5,58,0.00,,,0.00,VWS V14.01,2013-06-13 17:35:00,
2013-06-13 12:40:00,87.1,70.3,30.12,NE,45,8.1,8.1,58,0.00,,,0.00,VWS V14.01,2013-06-13 17:40:00,
2013-06-13 12:45:00,86.5,69.8,30.09,NE,45,6.7,8.3,58,0.00,,,0.00,VWS V14.01,2013-06-13 17:45:00,
2013-06-13 12:50:00,86.5,70.3,30.09,NE,45,8.3,8.3,58,0.00,,,0.00,VWS V14.01,2013-06-13 17:50:00,
2013-06-13 12:55:00,86.5,70.8,30.09,NE,45,6.3,8.1,60,0.00,,,0.00,VWS V14.01,2013-06-13 17:55:00,
2013-06-13 13:00:00,87.4,72.6,30.12,NE,45,0.0,0.0,62,0.00,,,0.00,VWS V14.01,2013-06-13 18:00:00,
2013-06-13 13:05:00,87.8,71.9,30.12,ENE,68,6.3,6.3,60,0.00,,,0.00,VWS V14.01,2013-06-13 18:05:00,
2013-06-13 13:10:00,88.0,71.6,30.12,NE,45,0.0,0.0,58,0.00,,,0.00,VWS V14.01,2013-06-13 18:10:00,
2013-06-13 13:15:00,88.5,71.6,30.09,NE,45,6.3,8.1,58,0.00,,,0.00,VWS V14.01,2013-06-13 18:15:00,
2013-06-13 13:20:00,89.2,72.3,30.09,East,90,3.6,3.6,58,0.00,,,0.00,VWS V14.01,2013-06-13 18:20:00,
2013-06-13 13:25:00,88.7,70.2,30.09,NE,45,2.7,2.7,54,0.00,,,0.00,VWS V14.01,2013-06-13 18:25:00,
2013-06-13 13:30:00,89.2,70.7,30.09,SE,135,0.0,0.0,54,0.00,,,0.00,VWS V14.01,2013-06-13 18:30:00,
2013-06-13 13:35:00,87.8,70.4,30.09,NE,45,10.5,10.5,56,0.00,,,0.00,VWS V14.01,2013-06-13 18:35:00,
2013-06-13 13:40:00,88.0,71.1,30.09,NW,315,0.0,2.2,58,0.00,,,0.00,VWS V14.01,2013-06-13 18:40:00,
2013-06-13 13:45:00,88.2,70.8,30.09,NE,45,8.1,8.3,56,0.00,,,0.00,VWS V14.01,2013-06-13 18:45:00,
2013-06-13 13:50:00,89.6,72.1,30.09,NE,45,0.0,0.0,56,0.00,,,0.00,VWS V14.01,2013-06-13 18:50:00,
2013-06-13 13:55:00,90.1,71.5,30.09,NE,45,6.3,6.7,54,0.00,,,0.00,VWS V14.01,2013-06-13 18:55:00,
2013-06-13 14:00:00,89.8,71.2,30.09,SE,135,0.0,3.6,54,0.00,,,0.00,VWS V14.01,2013-06-13 19:00:00,
2013-06-13 14:05:00,89.4,69.8,30.09,South,180,0.0,0.0,52,0.00,,,0.00,VWS V14.01,2013-06-13 19:05:00,
2013-06-13 14:10:00,90.3,70.0,30.09,East,90,5.8,5.8,52,0.00,,,0.00,VWS V14.01,2013-06-13 19:10:00,
2013-06-13 14:15:00,89.8,69.5,30.09,SE,135,0.0,4.9,52,0.00,,,0.00,VWS V14.01,2013-06-13 19:15:00,
2013-06-13 14:20:00,90.7,70.4,30.09,ENE,68,4.9,5.8,52,0.00,,,0.00,VWS V14.01,2013-06-13 19:20:00,
2013-06-13 14:25:00,90.3,70.6,30.09,East,90,4.0,4.0,52,0.00,,,0.00,VWS V14.01,2013-06-13 19:25:00,
2013-06-13 14:30:00,90.3,70.0,30.09,East,90,2.2,2.7,52,0.00,,,0.00,VWS V14.01,2013-06-13 19:30:00,
2013-06-13 14:35:00,90.5,68.4,30.09,East,90,0.0,0.0,48,0.00,,,0.00,VWS V14.01,2013-06-13 19:35:00,
2013-06-13 14:40:00,91.2,70.3,30.09,SE,135,0.0,0.0,50,0.00,,,0.00,VWS V14.01,2013-06-13 19:40:00,
2013-06-13 14:45:00,89.6,68.8,30.09,SE,135,0.0,0.0,50,0.00,,,0.00,VWS V14.01,2013-06-13 19:45:00,
2013-06-13 14:50:00,90.3,68.9,30.09,East,90,3.6,3.6,50,0.00,,,0.00,VWS V14.01,2013-06-13 19:50:00,
2013-06-13 14:55:00,90.1,68.7,30.09,NE,45,8.1,8.1,50,0.00,,,0.00,VWS V14.01,2013-06-13 19:55:00,
2013-06-13 15:00:00,90.3,68.9,30.09,NE,45,2.2,5.8,50,0.00,,,0.00,VWS V14.01,2013-06-13 20:00:00,
2013-06-13 15:05:00,89.4,67.5,30.09,NE,45,4.0,4.9,48,0.00,,,0.00,VWS V14.01,2013-06-13 20:05:00,
2013-06-13 15:10:00,90.1,68.1,30.09,East,90,0.0,0.0,48,0.00,,,0.00,VWS V14.01,2013-06-13 20:10:00,
2013-06-13 15:15:00,91.8,70.2,30.09,NE,45,3.6,4.0,50,0.00,,,0.00,VWS V14.01,2013-06-13 20:15:00,
2013-06-13 15:20:00,91.8,70.2,30.09,East,90,0.0,0.0,50,0.00,,,0.00,VWS V14.01,2013-06-13 20:20:00,
2013-06-13 15:25:00,91.9,69.2,30.09,East,90,3.6,3.6,48,0.00,,,0.00,VWS V14.01,2013-06-13 20:25:00,
2013-06-13 15:30:00,92.1,68.7,30.06,NE,45,6.7,6.7,46,0.00,,,0.00,VWS V14.01,2013-06-13 20:30:00,
2013-06-13 15:35:00,89.8,68.4,30.06,NE,45,6.3,6.3,50,0.00,,,0.00,VWS V14.01,2013-06-13 20:35:00,
2013-06-13 15:40:00,90.5,70.2,30.06,NE,45,8.7,8.7,52,0.00,,,0.00,VWS V14.01,2013-06-13 20:40:00,
2013-06-13 15:45:00,89.8,68.4,30.06,NE,45,0.0,4.0,50,0.00,,,0.00,VWS V14.01,2013-06-13 20:45:00,
2013-06-13 15:50:00,91.0,69.5,30.06,NE,45,4.9,4.9,50,0.00,,,0.00,VWS V14.01,2013-06-13 20:50:00,
2013-06-13 15:55:00,90.7,68.0,30.06,NE,45,2.7,4.0,48,0.00,,,0.00,VWS V14.01,2013-06-13 20:55:00,
2013-06-13 16:00:00,90.1,67.5,30.06,ENE,68,2.2,4.0,48,0.00,,,0.00,VWS V14.01,2013-06-13 21:00:00,
2013-06-13 16:05:00,91.8,69.6,30.06,NE,45,0.0,0.0,48,0.00,,,0.00,VWS V14.01,2013-06-13 21:05:00,
2013-06-13 16:10:00,91.0,67.1,30.06,NE,45,5.8,5.8,46,0.00,,,0.00,VWS V14.01,2013-06-13 21:10:00,
2013-06-13 16:15:00,91.0,67.1,30.06,NE,45,4.0,5.8,46,0.00,,,0.00,VWS V14.01,2013-06-13 21:15:00,
2013-06-13 16:20:00,90.5,66.0,30.06,NE,45,6.3,7.2,44,0.00,,,0.00,VWS V14.01,2013-06-13 21:20:00,
2013-06-13 16:25:00,90.1,66.9,30.06,NE,45,3.1,5.8,46,0.00,,,0.00,VWS V14.01,2013-06-13 21:25:00,
2013-06-13 16:30:00,90.3,68.3,30.06,ENE,68,2.7,4.0,48,0.00,,,0.00,VWS V14.01,2013-06-13 21:30:00,
2013-06-13 16:35:00,90.3,67.7,30.06,ENE,68,2.7,3.6,48,0.00,,,0.00,VWS V14.01,2013-06-13 21:35:00,
2013-06-13 16:40:00,90.5,67.2,30.06,NE,45,0.0,3.1,46,0.00,,,0.00,VWS V14.01,2013-06-13 21:40:00,
2013-06-13 16:45:00,90.7,67.4,30.06,NE,45,0.0,0.0,46,0.00,,,0.00,VWS V14.01,2013-06-13 21:45:00,
2013-06-13 16:50:00,91.0,66.4,30.06,East,90,0.0,0.0,44,0.00,,,0.00,VWS V14.01,2013-06-13 21:50:00,
2013-06-13 16:55:00,91.4,66.1,30.06,East,90,0.0,0.0,44,0.00,,,0.00,VWS V14.01,2013-06-13 21:55:00,
2013-06-13 17:00:00,91.9,67.2,30.06,East,90,2.2,2.2,44,0.00,,,0.00,VWS V14.01,2013-06-13 22:00:00,
2013-06-13 17:05:00,92.1,66.1,30.06,NE,45,5.8,7.2,42,0.00,,,0.00,VWS V14.01,2013-06-13 22:05:00,
2013-06-13 17:10:00,90.9,66.3,30.06,East,90,4.0,4.0,44,0.00,,,0.00,VWS V14.01,2013-06-13 22:10:00,
2013-06-13 17:15:00,91.2,67.2,30.03,East,90,0.0,0.0,46,0.00,,,0.00,VWS V14.01,2013-06-13 22:15:00,
2013-06-13 17:20:00,91.6,66.3,30.03,East,90,0.0,0.0,44,0.00,,,0.00,VWS V14.01,2013-06-13 22:20:00,
2013-06-13 17:25:00,92.1,66.8,30.03,South,180,4.0,4.0,44,0.00,,,0.00,VWS V14.01,2013-06-13 22:25:00,
2013-06-13 17:30:00,91.8,65.8,30.03,East,90,3.1,3.1,42,0.00,,,0.00,VWS V14.01,2013-06-13 22:30:00,
2013-06-13 17:35:00,91.2,66.6,30.03,SE,135,0.0,0.0,44,0.00,,,0.00,VWS V14.01,2013-06-13 22:35:00,
2013-06-13 17:40:00,91.8,67.1,30.03,ESE,112,0.0,0.0,44,0.00,,,0.00,VWS V14.01,2013-06-13 22:40:00,
2013-06-13 17:45:00,91.0,65.8,30.06,SE,135,5.4,5.4,44,0.00,,,0.00,VWS V14.01,2013-06-13 22:45:00,
2013-06-13 17:50:00,90.9,65.6,30.06,SE,135,3.6,3.6,44,0.00,,,0.00,VWS V14.01,2013-06-13 22:50:00,
2013-06-13 17:55:00,91.2,65.3,30.06,SE,135,3.6,3.6,42,0.00,,,0.00,VWS V14.01,2013-06-13 22:55:00,
2013-06-13 18:00:00,90.9,65.0,30.06,SE,135,5.4,5.4,42,0.00,,,0.00,VWS V14.01,2013-06-13 23:00:00,
2013-06-13 18:05:00,90.3,65.1,30.06,ESE,112,4.5,4.5,44,0.00,,,0.00,VWS V14.01,2013-06-13 23:05:00,
2013-06-13 18:10:00,89.6,64.5,30.06,SE,135,0.0,2.7,44,0.00,,,0.00,VWS V14.01,2013-06-13 23:10:00,
2013-06-13 18:15:00,89.4,65.0,30.03,SE,135,2.7,2.7,44,0.00,,,0.00,VWS V14.01,2013-06-13 23:15:00,
2013-06-13 18:20:00,89.6,63.8,30.03,SE,135,5.8,5.8,42,0.00,,,0.00,VWS V14.01,2013-06-13 23:20:00,
2013-06-13 18:25:00,89.6,64.5,30.03,South,180,3.6,3.6,44,0.00,,,0.00,VWS V14.01,2013-06-13 23:25:00,
2013-06-13 18:30:00,88.3,64.0,30.06,South,180,4.9,6.3,44,0.00,,,0.00,VWS V14.01,2013-06-13 23:30:00,
2013-06-13 18:35:00,87.8,63.5,30.06,SE,135,5.4,7.6,44,0.00,,,0.00,VWS V14.01,2013-06-13 23:35:00,
2013-06-13 18:40:00,87.6,63.3,30.06,SE,135,3.1,3.6,44,0.00,,,0.00,VWS V14.01,2013-06-13 23:40:00,
2013-06-13 18:45:00,87.4,63.8,30.06,South,180,5.8,6.7,46,0.00,,,0.00,VWS V14.01,2013-06-13 23:45:00,
2013-06-13 18:50:00,87.1,62.9,30.06,SSE,158,2.7,3.1,44,0.00,,,0.00,VWS V14.01,2013-06-13 23:50:00,
2013-06-13 18:55:00,86.9,62.7,30.06,South,180,4.0,4.0,44,0.00,,,0.00,VWS V14.01,2013-06-13 23:55:00,
2013-06-13 19:00:00,86.5,63.0,30.06,SSE,158,2.7,3.6,46,0.00,,,0.00,VWS V14.01,2013-06-14 00:00:00,
2013-06-13 19:05:00,86.4,63.5,30.06,SE,135,5.4,5.4,46,0.00,,,0.00,VWS V14.01,2013-06-14 00:05:00,
2013-06-13 19:10:00,86.9,64.6,30.06,South,180,3.6,3.6,48,0.00,,,0.00,VWS V14.01,2013-06-14 00:10:00,
2013-06-13 19:15:00,86.9,64.6,30.03,SSE,158,0.0,4.0,48,0.00,,,0.00,VWS V14.01,2013-06-14 00:15:00,
2013-06-13 19:20:00,86.9,64.6,30.03,SSE,158,3.6,3.6,48,0.00,,,0.00,VWS V14.01,2013-06-14 00:20:00,
2013-06-13 19:25:00,85.8,65.9,30.03,South,180,0.0,5.4,52,0.00,,,0.00,VWS V14.01,2013-06-14 00:25:00,
2013-06-13 19:30:00,85.3,65.4,30.06,South,180,4.0,4.0,52,0.00,,,0.00,VWS V14.01,2013-06-14 00:30:00,
2013-06-13 19:35:00,84.7,66.0,30.06,South,180,3.6,3.6,54,0.00,,,0.00,VWS V14.01,2013-06-14 00:35:00,
2013-06-13 19:40:00,84.9,66.2,30.06,South,180,5.8,5.8,54,0.00,,,0.00,VWS V14.01,2013-06-14 00:40:00,
2013-06-13 19:45:00,84.4,66.2,30.06,SE,135,3.1,3.1,54,0.00,,,0.00,VWS V14.01,2013-06-14 00:45:00,
2013-06-13 19:50:00,84.0,65.9,30.06,South,180,3.6,4.9,54,0.00,,,0.00,VWS V14.01,2013-06-14 00:50:00,
2013-06-13 19:55:00,83.7,66.1,30.06,South,180,5.4,5.4,56,0.00,,,0.00,VWS V14.01,2013-06-14 00:55:00,
2013-06-13 20:00:00,83.1,66.1,30.03,South,180,3.1,3.1,56,0.00,,,0.00,VWS V14.01,2013-06-14 01:00:00,
2013-06-13 20:04:00,82.8,66.2,30.03,South,180,2.7,2.7,58,0.00,,,0.00,VWS V14.01,2013-06-14 01:04:00,
2013-06-13 20:09:00,82.4,66.4,30.03,South,180,2.7,3.6,58,0.00,,,0.00,VWS V14.01,2013-06-14 01:09:00,
2013-06-13 20:14:00,82.0,67.0,30.06,South,180,4.0,4.0,60,0.00,,,0.00,VWS V14.01,2013-06-14 01:14:00,
2013-06-13 20:19:00,81.5,67.0,30.06,South,180,4.0,4.0,62,0.00,,,0.00,VWS V14.01,2013-06-14 01:19:00,
2013-06-13 20:24:00,81.3,67.3,30.06,South,180,0.0,0.0,62,0.00,,,0.00,VWS V14.01,2013-06-14 01:24:00,
2013-06-13 20:29:00,80.8,67.2,30.06,South,180,2.7,2.7,64,0.00,,,0.00,VWS V14.01,2013-06-14 01:29:00,
2013-06-13 20:34:00,80.4,67.4,30.06,SSE,158,3.1,3.6,64,0.00,,,0.00,VWS V14.01,2013-06-14 01:34:00,
2013-06-13 20:39:00,80.1,67.5,30.06,South,180,3.1,3.1,66,0.00,,,0.00,VWS V14.01,2013-06-14 01:39:00,
2013-06-13 20:44:00,79.9,67.3,30.06,South,180,4.0,4.0,66,0.00,,,0.00,VWS V14.01,2013-06-14 01:44:00,
2013-06-13 20:49:00,79.7,67.6,30.06,South,180,4.9,5.4,66,0.00,,,0.00,VWS V14.01,2013-06-14 01:49:00,
2013-06-13 20:54:00,79.3,67.2,30.06,SSE,158,8.1,8.1,66,0.00,,,0.00,VWS V14.01,2013-06-14 01:54:00,
2013-06-13 20:59:00,79.2,67.5,30.03,South,180,4.5,6.7,68,0.00,,,0.00,VWS V14.01,2013-06-14 01:59:00,
2013-06-13 21:04:00,79.0,67.3,30.03,South,180,3.1,5.4,68,0.00,,,0.00,VWS V14.01,2013-06-14 02:04:00,
2013-06-13 21:09:00,78.6,67.4,30.03,South,180,5.8,7.2,68,0.00,,,0.00,VWS V14.01,2013-06-14 02:09:00,
2013-06-13 21:14:00,78.4,67.2,30.06,South,180,3.6,3.6,68,0.00,,,0.00,VWS V14.01,2013-06-14 02:14:00,
2013-06-13 21:19:00,78.4,66.8,30.06,South,180,4.9,4.9,68,0.00,,,0.00,VWS V14.01,2013-06-14 02:19:00,
2013-06-13 21:24:00,78.3,66.2,30.06,South,180,4.9,4.9,66,0.00,,,0.00,VWS V14.01,2013-06-14 02:24:00,
2013-06-13 21:29:00,78.1,66.0,30.06,South,180,4.9,4.9,66,0.00,,,0.00,VWS V14.01,2013-06-14 02:29:00,
2013-06-13 21:34:00,77.9,65.8,30.06,South,180,5.4,7.6,66,0.00,,,0.00,VWS V14.01,2013-06-14 02:34:00,
2013-06-13 21:39:00,77.7,65.7,30.06,South,180,9.2,9.2,66,0.00,,,0.00,VWS V14.01,2013-06-14 02:39:00,
2013-06-13 21:44:00,77.5,65.9,30.06,South,180,6.3,8.1,68,0.00,,,0.00,VWS V14.01,2013-06-14 02:44:00,
2013-06-13 21:49:00,77.4,65.8,30.06,South,180,4.0,4.9,68,0.00,,,0.00,VWS V14.01,2013-06-14 02:49:00,
2013-06-13 21:54:00,77.2,66.0,30.06,South,180,5.4,6.3,68,0.00,,,0.00,VWS V14.01,2013-06-14 02:54:00,
2013-06-13 21:59:00,77.0,65.8,30.06,South,180,4.9,8.3,68,0.00,,,0.00,VWS V14.01,2013-06-14 02:59:00,
2013-06-13 22:04:00,76.8,66.1,30.06,South,180,5.4,6.3,70,0.00,,,0.00,VWS V14.01,2013-06-14 03:04:00,
2013-06-13 22:09:00,76.6,66.3,30.06,South,180,5.4,6.3,70,0.00,,,0.00,VWS V14.01,2013-06-14 03:09:00,
2013-06-13 22:14:00,76.5,66.2,30.06,South,180,9.2,9.2,70,0.00,,,0.00,VWS V14.01,2013-06-14 03:14:00,
2013-06-13 22:19:00,76.3,66.4,30.06,South,180,4.0,7.2,72,0.00,,,0.00,VWS V14.01,2013-06-14 03:19:00,
2013-06-13 22:24:00,76.1,66.2,30.06,South,180,0.0,5.4,72,0.00,,,0.00,VWS V14.01,2013-06-14 03:24:00,
2013-06-13 22:29:00,75.9,66.4,30.06,South,180,5.8,5.8,72,0.00,,,0.00,VWS V14.01,2013-06-14 03:29:00,
2013-06-13 22:34:00,75.7,66.7,30.06,South,180,3.1,4.9,74,0.00,,,0.00,VWS V14.01,2013-06-14 03:34:00,
2013-06-13 22:39:00,75.6,66.9,30.06,South,180,2.7,4.0,74,0.00,,,0.00,VWS V14.01,2013-06-14 03:39:00,
2013-06-13 22:44:00,75.6,67.3,30.06,South,180,5.4,6.3,76,0.00,,,0.00,VWS V14.01,2013-06-14 03:44:00,
2013-06-13 22:49:00,75.4,67.1,30.06,South,180,4.0,4.0,76,0.00,,,0.00,VWS V14.01,2013-06-14 03:49:00,
2013-06-13 22:54:00,75.2,67.3,30.06,SW,225,5.4,5.4,76,0.00,,,0.00,VWS V14.01,2013-06-14 03:54:00,
2013-06-13 22:59:00,75.0,67.5,30.06,SSW,202,2.7,4.0,78,0.00,,,0.00,VWS V14.01,2013-06-14 03:59:00,
2013-06-13 23:01:00,74.8,67.3,30.06,SW,225,4.0,4.0,78,0.00,,,0.00,VWS V14.01,2013-06-14 04:01:00,
2013-06-13 23:06:00,74.8,67.7,30.06,South,180,3.1,3.6,78,0.00,,,0.00,VWS V14.01,2013-06-14 04:06:00,
2013-06-13 23:11:00,74.7,67.9,30.06,SW,225,2.7,3.1,80,0.00,,,0.00,VWS V14.01,2013-06-14 04:11:00,
2013-06-13 23:16:00,74.7,67.9,30.06,SW,225,4.0,6.3,80,0.00,,,0.00,VWS V14.01,2013-06-14 04:16:00,
2013-06-13 23:21:00,74.5,67.7,30.06,South,180,4.0,6.3,80,0.00,,,0.00,VWS V14.01,2013-06-14 04:21:00,
2013-06-13 23:26:00,74.5,68.1,30.06,SW,225,5.4,5.4,80,0.00,,,0.00,VWS V14.01,2013-06-14 04:26:00,
2013-06-13 23:31:00,74.3,67.9,30.06,SSW,202,3.1,3.6,80,0.00,,,0.00,VWS V14.01,2013-06-14 04:31:00,
2013-06-13 23:36:00,73.9,67.9,30.06,SW,225,3.1,3.1,82,0.00,,,0.00,VWS V14.01,2013-06-14 04:36:00,
2013-06-13 23:41:00,73.8,67.8,30.06,SSW,202,3.1,4.0,82,0.00,,,0.00,VWS V14.01,2013-06-14 04:41:00,
2013-06-13 23:46:00,73.8,68.1,30.06,SW,225,3.1,3.6,82,0.00,,,0.00,VWS V14.01,2013-06-14 04:46:00,
2013-06-13 23:51:00,73.6,67.9,30.06,SSW,202,3.1,3.1,82,0.00,,,0.00,VWS V14.01,2013-06-14 04:51:00,
2013-06-13 23:56:00,73.4,68.1,30.06,SW,225,4.9,5.4,84,0.00,,,0.00,VWS V14.01,2013-06-14 04:56:00,